TO3401 / F-GZHZ 7700 Squawk Report (21st of February, 2019)

Aircraft B738 Reg No. F-GZHZ Age 13 years old
Model 737 Jet engines 2 First flight 09-02-06
Registered 10-07-18 Rollout 01-02-06 Delivered 23-02-06
Construction No. 33977 Line No. 1878 Series 85P
ADSHEX 3964F9 Airline name Transavia France Owner N/A
Airfield based Paris-Orly~Essonne~F First tracked 2018-07-31 04:10:00

Flight history for F-GZHZ

Route Flight No Date Playback
Orly (ORY) - Capodichino (NAP) TO3820 2019-10-21 06:29:00
Carthage (TUN) - Orly (ORY) TO4511 2019-10-20 20:31:00
Orly (ORY) - Carthage (TUN) TO4510 2019-10-20 18:25:00
Menara (RAK) - Orly (ORY) TO3013 2019-10-20 12:34:00
Saint Exupery (LYS) - Menara (RAK) TO4870 2019-10-20 09:55:00
Lisbon (LIS) - Saint Exupery (LYS) TO4839 2019-10-20 06:07:00
Saint Exupery (LYS) - Lisbon (LIS) TO4838 2019-10-19 20:17:00
Madeira (FNC) - Porto (OPO) - Saint Exupery (LYS) TO4851 2019-10-19 15:57:00
Saint Exupery (LYS) - Porto (OPO) - Madeira (FNC) TO4850 2019-10-19 11:10:00
Porto (OPO) - Saint Exupery (LYS) TO4845 2019-10-19 04:46:00
Orly (ORY) - Porto (OPO) TO3408 2019-10-18 19:05:00
Malaga (AGP) - Orly (ORY) TO3165 2019-10-18 15:25:00
Orly (ORY) - Malaga (AGP) TO3164 2019-10-18 13:20:00
Schiphol (AMS) - Orly (ORY) TO4011 2019-10-18 10:25:00
Orly (ORY) - Schiphol (AMS) TO4010 2019-10-18 08:15:00
Capodichino (NAP) - Orly (ORY) TO3827 2019-10-17 16:26:00
???? N/A 2019-10-17 14:38:00
Orly (ORY) - Capodichino (NAP) TO3826 2019-10-17 13:09:00
Malaga (AGP) - Orly (ORY) TO3161 2019-10-17 11:25:00
Orly (ORY) - Malaga (AGP) TO3160 2019-10-17 08:01:00
Time Lat Lon Altitude Heading Speed Vertical Rate
2019-02-21 10:38:55 GMT 48.721024 2.319805 0 75 19 0
2019-02-21 10:38:55 GMT 48.721024 2.319805 0 75 19 0
2019-02-21 10:38:54 GMT 48.720474 2.318327 -75 61 151 -768
2019-02-21 10:38:32 GMT 48.713287 2.298094 225 62 153 -832
2019-02-21 10:38:21 GMT 48.709625 2.287621 375 62 157 -832
2019-02-21 10:38:12 GMT 48.706211 2.277928 525 61 158 -896
2019-02-21 10:38:06 GMT 48.704269 2.272550 600 62 160 -896
2019-02-21 10:38:01 GMT 48.702484 2.267593 675 62 160 -896
2019-02-21 10:37:53 GMT 48.699787 2.259931 775 62 164 -832
2019-02-21 10:37:50 GMT 48.698715 2.256895 825 61 167 -960
2019-02-21 10:37:44 GMT 48.696350 2.250366 925 61 173 -768
2019-02-21 10:37:40 GMT 48.694794 2.246070 1,625 61 238 -1216
2019-02-21 10:37:33 GMT 48.692059 2.238464 1,100 61 184 -896
2019-02-21 10:37:29 GMT 48.690617 2.234344 1,150 61 186 -960
2019-02-21 10:37:26 GMT 48.689163 2.230295 1,225 62 187 -960
2019-02-21 10:37:22 GMT 48.687496 2.225454 1,300 62 193 -1024
2019-02-21 10:37:19 GMT 48.684750 2.217720 1,400 61 198 -1152
2019-02-21 10:37:09 GMT 48.681679 2.209047 1,550 61 204 -1152
2019-02-21 10:37:00 GMT 48.677906 2.198422 1,725 62 207 -1216
2019-02-21 10:36:56 GMT 48.676414 2.194085 1,750 62 208 -1152
2019-02-21 10:36:47 GMT 48.671402 2.180082 1,975 61 215 -768
2019-02-21 10:36:36 GMT 48.666595 2.166403 2,125 62 231 -1344
2019-02-21 10:36:25 GMT 48.661053 2.150935 2,375 60 241 -1280
2019-02-21 10:36:16 GMT 48.655746 2.136335 2,575 61 246 -1088
2019-02-21 10:36:06 GMT 48.650940 2.122685 2,750 61 251 -1280
2019-02-21 10:36:03 GMT 48.648998 2.117253 2,850 60 251 -1280
2019-02-21 10:35:54 GMT 48.644203 2.103954 3,450 60 251 -1280
2019-02-21 10:35:47 GMT 48.639828 2.091884 3,250 61 252 -1408
2019-02-21 10:35:44 GMT 48.638306 2.087754 3,450 60 251 -1280
2019-02-21 10:35:34 GMT 48.632492 2.071768 3,550 62 249 -576
2019-02-21 10:35:25 GMT 48.627869 2.058528 3,575 63 248 0
2019-02-21 10:35:22 GMT 48.626606 2.054660 3,575 65 248 0
2019-02-21 10:35:13 GMT 48.621643 2.038809 3,575 66 248 0
2019-02-21 10:35:05 GMT 48.616550 2.021846 3,575 63 249 0
2019-02-21 10:34:55 GMT 48.610546 2.006667 3,575 54 249 0
2019-02-21 10:34:51 GMT 48.610546 2.006667 3,575 53 249 0
2019-02-21 10:34:43 GMT 48.604797 1.995638 3,575 50 249 0
2019-02-21 10:34:40 GMT 48.602280 1.991061 3,575 50 249 0
2019-02-21 10:34:33 GMT 48.597466 1.982382 3,575 50 250 0
2019-02-21 10:34:29 GMT 48.594269 1.976624 3,575 50 250 0
2019-02-21 10:34:24 GMT 48.590240 1.969299 3,575 50 253 0
2019-02-21 10:34:19 GMT 48.586670 1.962820 3,575 50 254 0
2019-02-21 10:34:14 GMT 48.582333 1.954988 3,575 50 262 0
2019-02-21 10:34:08 GMT 48.578190 1.947471 3,575 50 262 0
2019-02-21 10:34:00 GMT 48.571815 1.935762 3,575 50 270 -512
2019-02-21 10:33:57 GMT 48.570045 1.932582 3,600 50 270 -832
2019-02-21 10:33:49 GMT 48.563461 1.920354 3,725 50 272 -960
2019-02-21 10:33:46 GMT 48.561401 1.916551 3,775 51 273 -1024
2019-02-21 10:33:42 GMT 48.558014 1.910283 3,850 51 275 -960
2019-02-21 10:33:39 GMT 48.555313 1.905212 3,950 50 281 -1024
2019-02-21 10:33:35 GMT 48.552029 1.899045 3,975 51 276 -960
2019-02-21 10:33:29 GMT 48.546890 1.889648 4,250 50 284 -1024
2019-02-21 10:33:24 GMT 48.543510 1.883432 4,150 50 279 -960
2019-02-21 10:33:21 GMT 48.540802 1.878451 4,200 50 281 -1024
2019-02-21 10:33:18 GMT 48.534386 1.866808 4,300 50 284 -1024
2019-02-21 10:33:13 GMT 48.534386 1.866808 4,325 50 284 -1024
2019-02-21 10:33:08 GMT 48.529358 1.857629 4,450 50 285 -1024
2019-02-21 10:33:03 GMT 48.525307 1.850257 4,525 50 286 -1024
2019-02-21 10:32:56 GMT 48.520157 1.840844 4,950 50 285 -1472
2019-02-21 10:32:50 GMT 48.511806 1.825827 4,775 50 291 -960
2019-02-21 10:32:47 GMT 48.511806 1.825827 4,825 50 291 -1024
2019-02-21 10:32:41 GMT 48.506454 1.816214 4,900 49 291 -1472
2019-02-21 10:32:35 GMT 48.496960 1.799228 5,250 50 288 -1792
2019-02-21 10:32:30 GMT 48.496960 1.799228 5,225 50 288 -1792
2019-02-21 10:32:26 GMT 48.491463 1.789398 5,425 50 286 -1536
2019-02-21 10:32:18 GMT 48.487228 1.781737 5,575 50 286 -1664
2019-02-21 10:32:12 GMT 48.482342 1.772846 5,725 50 286 -1536
2019-02-21 10:32:09 GMT 48.479454 1.767642 5,825 50 286 -1536
2019-02-21 10:32:03 GMT 48.469940 1.750347 6,050 50 286 -1088
2019-02-21 10:31:58 GMT 48.469940 1.750347 6,100 50 286 -1216
2019-02-21 10:31:53 GMT 48.466919 1.744854 6,350 50 287 -1024
2019-02-21 10:31:47 GMT 48.461018 1.734177 6,275 50 289 -1216
2019-02-21 10:31:42 GMT 48.456665 1.726332 6,450 50 290 -1344
2019-02-21 10:31:38 GMT 48.453293 1.720300 6,500 50 290 -1536
2019-02-21 10:31:33 GMT 48.448242 1.711121 6,675 50 288 -1536
2019-02-21 10:31:25 GMT 48.442352 1.700496 6,875 50 288 -1408
2019-02-21 10:31:21 GMT 48.438396 1.693412 6,950 50 287 -192
2019-02-21 10:31:18 GMT 48.435928 1.688937 6,975 50 287 0
2019-02-21 10:31:14 GMT 48.432621 1.683004 7,000 50 287 0
2019-02-21 10:31:11 GMT 48.430061 1.678378 7,000 50 287 0
2019-02-21 10:31:05 GMT 48.424801 1.668838 7,000 50 287 0
2019-02-21 10:31:02 GMT 48.422195 1.664077 7,000 50 288 0
2019-02-21 10:30:58 GMT 48.418007 1.656550 7,000 50 287 0
2019-02-21 10:30:50 GMT 48.404411 1.631976 7,000 50 288 0
2019-02-21 10:30:40 GMT 48.404411 1.631976 7,000 50 288 0
2019-02-21 10:30:34 GMT 48.398346 1.620976 7,000 50 287 0
2019-02-21 10:30:30 GMT 48.395054 1.614990 7,000 50 285 0
2019-02-21 10:30:21 GMT 48.387001 1.600462 7,000 50 288 0
2019-02-21 10:30:16 GMT 48.382904 1.593162 7,000 50 287 0
2019-02-21 10:30:10 GMT 48.377518 1.583510 7,000 50 286 0
2019-02-21 10:30:05 GMT 48.374199 1.577550 7,000 50 286 0
2019-02-21 10:29:58 GMT 48.368866 1.567876 7,000 50 286 0
2019-02-21 10:29:52 GMT 48.362980 1.557384 7,000 49 286 0
2019-02-21 10:29:49 GMT 48.359711 1.551467 7,000 50 285 0
2019-02-21 10:29:42 GMT 48.354366 1.541917 7,000 49 284 0
2019-02-21 10:29:35 GMT 48.348358 1.531184 6,975 49 284 0
2019-02-21 10:29:28 GMT 48.342033 1.519799 6,975 50 285 0
2019-02-21 10:29:23 GMT 48.338516 1.513578 6,975 50 285 0
2019-02-21 10:29:17 GMT 48.333000 1.503681 6,975 49 286 0
2019-02-21 10:29:05 GMT 48.322899 1.485756 6,975 49 288 0
2019-02-21 10:28:57 GMT 48.316055 1.473541 6,975 50 288 -576
2019-02-21 10:28:54 GMT 48.312611 1.467470 7,000 50 288 -576
2019-02-21 10:28:45 GMT 48.305511 1.454773 7,075 50 289 -1344
2019-02-21 10:28:42 GMT 48.295807 1.437096 7,125 50 289 -1472
2019-02-21 10:28:34 GMT 48.295807 1.437096 7,350 50 289 -1472
2019-02-21 10:28:31 GMT 48.294174 1.434149 7,400 50 289 -1472
2019-02-21 10:28:24 GMT 48.287006 1.421139 7,600 50 291 -1152
2019-02-21 10:28:19 GMT 48.283997 1.415687 7,650 50 292 -1152
2019-02-21 10:28:12 GMT 48.276344 1.401696 7,875 49 293 -1408
2019-02-21 10:28:08 GMT 48.274437 1.398299 7,925 50 293 -1536
2019-02-21 10:28:04 GMT 48.270107 1.390493 8,050 50 293 -1408
2019-02-21 10:27:58 GMT 48.265732 1.382687 8,175 49 294 -1408
2019-02-21 10:27:52 GMT 48.259773 1.372062 8,325 49 295 -1792
2019-02-21 10:27:44 GMT 48.253395 1.360859 8,525 49 295 -1728
2019-02-21 10:27:40 GMT 48.249485 1.354065 8,650 49 295 -1792
2019-02-21 10:27:31 GMT 48.240826 1.338814 9,125 49 293 -1984
2019-02-21 10:27:27 GMT 48.232307 1.323636 9,300 50 291 -1408
2019-02-21 10:27:20 GMT 48.232307 1.323636 9,275 50 291 -1600
2019-02-21 10:27:10 GMT 48.223755 1.308289 9,525 50 293 -1408
2019-02-21 10:26:59 GMT 48.213642 1.290098 9,800 50 293 -1536
2019-02-21 10:26:51 GMT 48.199814 1.265452 10,025 49 293 -1344
2019-02-21 10:26:40 GMT 48.197021 1.260464 10,250 49 296 -1088
2019-02-21 10:26:31 GMT 48.189102 1.246455 10,425 50 297 -1024
2019-02-21 10:26:28 GMT 48.186813 1.242300 10,475 49 300 -1344
2019-02-21 10:26:25 GMT 48.184113 1.237582 10,525 49 300 -1152
2019-02-21 10:26:20 GMT 48.178711 1.228004 10,650 49 307 -704
2019-02-21 10:26:16 GMT 48.175964 1.223215 10,675 49 305 -640
2019-02-21 10:26:07 GMT 48.167416 1.207990 10,750 49 322 -768
2019-02-21 10:26:01 GMT 48.161545 1.197510 10,850 49 334 -704
2019-02-21 10:25:57 GMT 48.157639 1.190608 10,900 49 320 -704
2019-02-21 10:25:46 GMT 48.146465 1.170748 11,050 49 337 -768
2019-02-21 10:25:36 GMT 48.137386 1.154691 11,200 49 337 -768
2019-02-21 10:25:26 GMT 48.127239 1.136803 11,300 49 344 -832
2019-02-21 10:25:14 GMT 48.114811 1.114760 11,500 49 350 -960
2019-02-21 10:25:04 GMT 48.104614 1.096731 11,800 49 359 -960
2019-02-21 10:24:55 GMT 48.094654 1.079125 11,825 49 368 -1088
2019-02-21 10:24:47 GMT 48.086273 1.064265 11,950 49 375 -1088
2019-02-21 10:24:44 GMT 48.082874 1.058350 12,025 49 377 -1088
2019-02-21 10:24:39 GMT 48.077244 1.048420 12,100 49 391 -1152
2019-02-21 10:24:34 GMT 48.071365 1.038071 12,200 49 385 -1088
2019-02-21 10:24:24 GMT 48.059647 1.017540 12,400 49 396 -1408
2019-02-21 10:24:16 GMT 48.049683 1.000178 12,625 49 403 -2368
2019-02-21 10:24:12 GMT 48.045456 0.992821 12,750 49 404 -2368
2019-02-21 10:24:03 GMT 48.033875 0.972221 13,150 51 408 -2688
2019-02-21 10:23:55 GMT 48.024685 0.953979 13,550 55 410 -3072
2019-02-21 10:23:51 GMT 48.020554 0.944824 13,750 56 410 -3072
2019-02-21 10:23:43 GMT 48.012131 0.924568 14,175 59 412 -3008
2019-02-21 10:23:34 GMT 48.003891 0.904037 14,600 59 413 -3072
2019-02-21 10:23:31 GMT 48.000477 0.895527 14,775 59 413 -3072
2019-02-21 10:23:27 GMT 47.997391 0.887901 14,925 58 418 -2688
2019-02-21 10:23:20 GMT 47.990376 0.870526 15,275 58 416 -2816
2019-02-21 10:23:11 GMT 47.980366 0.845806 15,725 58 420 -2816
2019-02-21 10:23:06 GMT 47.974548 0.831440 16,000 58 421 -3008
2019-02-21 10:23:03 GMT 47.972733 0.826932 16,550 58 425 -2624
2019-02-21 10:23:00 GMT 47.969604 0.819237 16,600 58 426 -2816
2019-02-21 10:22:55 GMT 47.965054 0.807988 16,450 58 424 -2560
2019-02-21 10:22:50 GMT 47.959030 0.793213 16,725 58 426 -3008
2019-02-21 10:22:46 GMT 47.951412 0.774325 17,000 59 427 -3072
2019-02-21 10:22:42 GMT 47.951412 0.774325 17,100 58 428 -3008
2019-02-21 10:22:38 GMT 47.947220 0.763893 17,300 59 429 -2816
2019-02-21 10:22:35 GMT 47.940563 0.747422 17,650 59 432 -3072
2019-02-21 10:22:31 GMT 47.940563 0.747422 17,600 59 432 -3072
2019-02-21 10:22:28 GMT 47.937492 0.739746 17,750 59 432 -3264
2019-02-21 10:22:21 GMT 47.930191 0.721596 18,150 59 433 -3072
2019-02-21 10:22:11 GMT 47.919571 0.695167 18,600 59 435 -3072
2019-02-21 10:22:04 GMT 47.912075 0.676645 18,825 59 437 -3392
2019-02-21 10:22:00 GMT 47.908539 0.667842 19,400 58 437 -3072
2019-02-21 10:21:57 GMT 47.905186 0.659602 19,725 58 441 -1280
2019-02-21 10:21:51 GMT 47.898716 0.643545 19,700 58 441 -1280
2019-02-21 10:21:47 GMT 47.894478 0.633122 19,775 58 441 -1152
2019-02-21 10:21:43 GMT 47.890289 0.622770 19,875 58 441 -1152
2019-02-21 10:21:40 GMT 47.887665 0.616264 19,900 59 441 -704
2019-02-21 10:21:36 GMT 47.876602 0.588895 19,975 59 443 0
2019-02-21 10:21:30 GMT 47.876602 0.588895 19,975 59 443 -64
2019-02-21 10:21:25 GMT 47.871948 0.577416 20,100 58 442 -1024
2019-02-21 10:21:19 GMT 47.864639 0.559410 20,100 58 442 -1024
2019-02-21 10:21:15 GMT 47.860611 0.549522 20,250 58 444 -1024
2019-02-21 10:21:12 GMT 47.857224 0.541214 20,225 58 444 -1024
2019-02-21 10:21:08 GMT 47.852142 0.528717 20,300 58 444 -1024
2019-02-21 10:21:03 GMT 47.848297 0.519310 20,350 58 444 -960
2019-02-21 10:21:00 GMT 47.844681 0.510452 20,425 58 444 -960
2019-02-21 10:20:57 GMT 47.841705 0.503105 20,450 58 444 -960
2019-02-21 10:20:54 GMT 47.838318 0.494797 20,550 58 445 -960
2019-02-21 10:20:47 GMT 47.831497 0.478043 20,850 58 445 -1024
2019-02-21 10:20:41 GMT 47.824631 0.461288 20,750 58 446 -960
2019-02-21 10:20:37 GMT 47.820374 0.450851 20,850 58 446 -960
2019-02-21 10:20:32 GMT 47.815430 0.438766 20,875 58 446 -960
2019-02-21 10:20:29 GMT 47.811813 0.429840 20,950 58 446 -1024
2019-02-21 10:20:26 GMT 47.809204 0.423592 20,975 58 446 -1024
2019-02-21 10:20:22 GMT 47.804169 0.411213 21,050 58 447 -1024
2019-02-21 10:20:19 GMT 47.801056 0.403610 21,100 58 447 -960
2019-02-21 10:20:15 GMT 47.793415 0.385014 21,175 58 447 -960
2019-02-21 10:20:12 GMT 47.793415 0.385014 21,250 58 448 -960
2019-02-21 10:20:09 GMT 47.790070 0.376900 21,275 58 447 -1024
2019-02-21 10:20:03 GMT 47.783752 0.361656 21,425 58 448 -960
2019-02-21 10:19:58 GMT 47.772491 0.334396 21,550 58 449 -1024
2019-02-21 10:19:52 GMT 47.772491 0.334396 21,550 58 449 -960
2019-02-21 10:19:48 GMT 47.767685 0.322861 21,625 58 449 -1024
2019-02-21 10:19:45 GMT 47.763851 0.313674 21,675 58 449 -1024
2019-02-21 10:19:40 GMT 47.758595 0.301068 21,750 58 451 -1024
2019-02-21 10:19:37 GMT 47.756104 0.294983 21,800 58 451 -1024
2019-02-21 10:19:30 GMT 47.747421 0.274165 21,950 58 453 -1024
2019-02-21 10:19:27 GMT 47.744999 0.268390 21,975 58 453 -1024
2019-02-21 10:19:20 GMT 47.737316 0.249869 22,100 58 454 -960
2019-02-21 10:19:17 GMT 47.733444 0.240601 22,150 58 454 -1024
2019-02-21 10:19:13 GMT 47.729050 0.229958 22,225 58 455 -1024
2019-02-21 10:19:09 GMT 47.724655 0.219315 22,275 58 455 -1024
2019-02-21 10:19:06 GMT 47.721909 0.212684 22,325 58 456 -1024
2019-02-21 10:19:03 GMT 47.718063 0.203384 22,400 58 455 -1024
2019-02-21 10:18:59 GMT 47.713486 0.192123 22,475 59 456 -960
2019-02-21 10:18:56 GMT 47.710236 0.184090 22,525 59 456 -1024
2019-02-21 10:18:53 GMT 47.705933 0.173378 22,575 59 456 -1024
2019-02-21 10:18:48 GMT 47.701904 0.163078 22,675 59 457 -960
2019-02-21 10:18:45 GMT 47.698471 0.154427 22,700 59 457 -1024
2019-02-21 10:18:42 GMT 47.695312 0.146324 22,750 59 457 -960
2019-02-21 10:18:39 GMT 47.692154 0.138153 22,800 59 457 -1024
2019-02-21 10:18:36 GMT 47.688675 0.129501 22,850 59 458 -1024
2019-02-21 10:18:32 GMT 47.683502 0.116131 22,950 59 460 -1024
2019-02-21 10:18:28 GMT 47.680847 0.109314 22,975 59 460 -1024
2019-02-21 10:18:25 GMT 47.677917 0.101967 23,025 59 461 -960
2019-02-21 10:18:19 GMT 47.670731 0.083633 23,150 59 462 -1024
2019-02-21 10:18:15 GMT 47.666557 0.073101 23,200 59 462 -1024
2019-02-21 10:18:10 GMT 47.660614 0.058090 23,300 59 462 -1024
2019-02-21 10:18:07 GMT 47.657776 0.051018 23,325 59 463 -1024
2019-02-21 10:18:04 GMT 47.655060 0.044157 23,400 59 463 -960
2019-02-21 10:17:59 GMT 47.649101 0.028874 23,500 59 463 -1024
2019-02-21 10:17:54 GMT 47.643539 0.015175 23,550 59 464 -1024
2019-02-21 10:17:48 GMT 47.637230 -0.000704 23,675 59 465 -1024
2019-02-21 10:17:43 GMT 47.631550 -0.014930 23,775 59 465 -1024
2019-02-21 10:17:36 GMT 47.623810 -0.034401 23,900 59 465 -1024
2019-02-21 10:17:33 GMT 47.621567 -0.039894 24,275 59 465 -1024
2019-02-21 10:17:27 GMT 47.614281 -0.058312 24,025 59 466 -1024
2019-02-21 10:17:24 GMT 47.611130 -0.066261 24,125 59 466 -1024
2019-02-21 10:17:16 GMT 47.602341 -0.088303 24,225 59 467 -1024
2019-02-21 10:17:12 GMT 47.598080 -0.098877 24,300 59 468 -1088
2019-02-21 10:17:07 GMT 47.592216 -0.113596 24,400 59 468 -1088
2019-02-21 10:17:02 GMT 47.587700 -0.125005 24,475 59 468 -1024
2019-02-21 10:16:57 GMT 47.581276 -0.141132 24,575 59 468 -1088
2019-02-21 10:16:50 GMT 47.573410 -0.160812 24,700 59 469 -1088
2019-02-21 10:16:46 GMT 47.569546 -0.170640 24,775 59 469 -1088
2019-02-21 10:16:41 GMT 47.563889 -0.184776 24,875 59 470 -1024
2019-02-21 10:16:36 GMT 47.558212 -0.199127 24,925 59 470 -960
2019-02-21 10:16:31 GMT 47.553314 -0.211418 25,000 59 471 -960
2019-02-21 10:16:28 GMT 47.548782 -0.222896 25,100 59 472 -960
2019-02-21 10:16:20 GMT 47.541054 -0.242192 25,200 59 473 -896
2019-02-21 10:16:15 GMT 47.534863 -0.257967 25,350 59 473 -896
2019-02-21 10:16:09 GMT 47.529007 -0.272392 25,375 59 473 -896
2019-02-21 10:16:05 GMT 47.523365 -0.286490 25,450 59 473 -896
2019-02-21 10:16:01 GMT 47.519920 -0.295152 25,500 59 473 -896
2019-02-21 10:15:57 GMT 47.509232 -0.321968 25,600 59 473 -960
2019-02-21 10:15:52 GMT 47.509232 -0.321968 25,700 59 471 -960
2019-02-21 10:15:49 GMT 47.506073 -0.329933 25,725 59 471 -960
2019-02-21 10:15:46 GMT 47.503674 -0.335928 25,750 59 470 -960
2019-02-21 10:15:43 GMT 47.498505 -0.348886 25,825 59 470 -960
2019-02-21 10:15:39 GMT 47.494736 -0.357901 25,875 59 470 -896
2019-02-21 10:15:35 GMT 47.490589 -0.368253 25,925 59 470 -960
2019-02-21 10:15:31 GMT 47.486446 -0.378747 26,000 59 469 -896
2019-02-21 10:15:27 GMT 47.480209 -0.394066 26,075 59 469 -896
2019-02-21 10:15:21 GMT 47.474808 -0.407593 26,250 59 468 -896
2019-02-21 10:15:17 GMT 47.471375 -0.416176 26,250 59 468 -896
2019-02-21 10:15:14 GMT 47.467594 -0.425650 26,300 59 454 -3520
2019-02-21 10:15:10 GMT 47.463684 -0.435402 26,325 59 468 -896
2019-02-21 10:15:06 GMT 47.458889 -0.447411 26,425 59 468 -896
2019-02-21 10:15:02 GMT 47.453110 -0.461838 26,475 59 468 -896
2019-02-21 10:14:55 GMT 47.445389 -0.481004 26,525 59 467 -832
2019-02-21 10:14:49 GMT 47.439987 -0.494385 26,625 59 465 -768
2019-02-21 10:14:45 GMT 47.435806 -0.504753 26,675 59 465 -768
2019-02-21 10:14:42 GMT 47.429283 -0.520724 27,200 59 454 -3520
2019-02-21 10:14:39 GMT 47.429283 -0.520724 26,775 59 463 -832
2019-02-21 10:14:36 GMT 47.422157 -0.538330 26,850 59 460 -1472
2019-02-21 10:14:33 GMT 47.418530 -0.547556 27,200 59 454 -3520
2019-02-21 10:14:29 GMT 47.418530 -0.547556 27,100 59 458 -2816
2019-02-21 10:14:25 GMT 47.413559 -0.559685 27,250 59 456 -3456
2019-02-21 10:14:22 GMT 47.411041 -0.566071 27,375 59 455 -3648
2019-02-21 10:14:18 GMT 47.406891 -0.576571 27,625 59 455 -3328
2019-02-21 10:14:13 GMT 47.400558 -0.591924 27,900 59 453 -2368
2019-02-21 10:14:08 GMT 47.395531 -0.604600 28,100 59 453 -1600
2019-02-21 10:14:05 GMT 47.392090 -0.612900 28,200 59 453 -1536
2019-02-21 10:14:02 GMT 47.389160 -0.620316 28,450 59 453 -1536
2019-02-21 10:13:59 GMT 47.384827 -0.631080 28,350 59 452 -1536
2019-02-21 10:13:54 GMT 47.380867 -0.640869 28,425 59 452 -1536
2019-02-21 10:13:51 GMT 47.377029 -0.650116 28,500 59 452 -1472
2019-02-21 10:13:48 GMT 47.373871 -0.657944 28,600 59 452 -1472
2019-02-21 10:13:43 GMT 47.368717 -0.670589 28,850 59 452 -1472
2019-02-21 10:13:38 GMT 47.362976 -0.684792 28,875 59 451 -1472
2019-02-21 10:13:34 GMT 47.354691 -0.705322 29,025 58 450 -1472
2019-02-21 10:13:30 GMT 47.354691 -0.705322 29,125 58 450 -1472
2019-02-21 10:13:27 GMT 47.351898 -0.711914 29,125 58 450 -1472
2019-02-21 10:13:24 GMT 47.348560 -0.720097 29,200 58 450 -1472
2019-02-21 10:13:21 GMT 47.345490 -0.727570 29,375 59 449 -1472
2019-02-21 10:13:17 GMT 47.341347 -0.737774 29,375 59 449 -1472
2019-02-21 10:13:14 GMT 47.337666 -0.746789 29,500 59 449 -1472
2019-02-21 10:13:11 GMT 47.335007 -0.753387 29,500 59 449 -1472
2019-02-21 10:13:08 GMT 47.330963 -0.763409 29,675 59 448 -1472
2019-02-21 10:13:05 GMT 47.328636 -0.769254 29,675 59 448 -1472
2019-02-21 10:13:01 GMT 47.323792 -0.781471 29,775 59 448 -1472
2019-02-21 10:12:56 GMT 47.318207 -0.795100 29,925 59 447 -1408
2019-02-21 10:12:52 GMT 47.313644 -0.806368 30,050 59 446 -1408
2019-02-21 10:12:47 GMT 47.308502 -0.819168 30,200 59 446 -1472
2019-02-21 10:12:41 GMT 47.302708 -0.833341 30,300 59 446 -1600
2019-02-21 10:12:35 GMT 47.295399 -0.851300 30,500 59 445 -1920
2019-02-21 10:12:30 GMT 47.291580 -0.860666 30,625 59 445 -1664
2019-02-21 10:12:24 GMT 47.284878 -0.877216 30,775 58 444 -1408
2019-02-21 10:12:20 GMT 47.280968 -0.886864 30,875 58 444 -1408
2019-02-21 10:12:15 GMT 47.273941 -0.903763 31,025 58 444 -1344
2019-02-21 10:12:09 GMT 47.269699 -0.914260 31,125 58 443 -1344
2019-02-21 10:12:03 GMT 47.262909 -0.930817 31,275 58 443 -1344
2019-02-21 10:11:58 GMT 47.257919 -0.943039 31,375 58 442 -1344
2019-02-21 10:11:54 GMT 47.252655 -0.955948 31,500 58 442 -1344
2019-02-21 10:11:48 GMT 47.247070 -0.969337 31,625 58 441 -1344
2019-02-21 10:11:45 GMT 47.243446 -0.978206 31,700 58 441 -1408
2019-02-21 10:11:38 GMT 47.236633 -0.994812 31,825 58 439 -1408
2019-02-21 10:11:35 GMT 47.232040 -1.006024 31,975 58 437 -1408
2019-02-21 10:11:30 GMT 47.228485 -1.014656 32,075 58 436 -1408
2019-02-21 10:11:27 GMT 47.225143 -1.022758 32,125 58 435 -1408
2019-02-21 10:11:24 GMT 47.221802 -1.030724 32,200 58 434 -1408
2019-02-21 10:11:20 GMT 47.217518 -1.041377 32,300 58 433 -1408
2019-02-21 10:11:17 GMT 47.214211 -1.049265 32,400 58 433 -1408
2019-02-21 10:11:13 GMT 47.210587 -1.058052 32,475 58 431 -1408
2019-02-21 10:11:09 GMT 47.205879 -1.069266 32,550 58 431 -1408
2019-02-21 10:11:06 GMT 47.203537 -1.074944 33,025 58 429 -1344
2019-02-21 10:11:03 GMT 47.200336 -1.082646 32,825 58 429 -1344
2019-02-21 10:11:00 GMT 47.197033 -1.090604 32,850 58 429 -1408
2019-02-21 10:10:56 GMT 47.192596 -1.101173 32,875 58 429 -1408
2019-02-21 10:10:53 GMT 47.189713 -1.108658 32,950 58 429 -1408
2019-02-21 10:10:47 GMT 47.183674 -1.122859 33,075 58 428 -1408
2019-02-21 10:10:43 GMT 47.179157 -1.133845 33,200 58 428 -1344
2019-02-21 10:10:40 GMT 47.175247 -1.143353 33,300 58 428 -1408
2019-02-21 10:10:37 GMT 47.173199 -1.148283 33,350 58 428 -1408
2019-02-21 10:10:34 GMT 47.170544 -1.154762 33,550 58 428 -1344
2019-02-21 10:10:28 GMT 47.164307 -1.170044 33,625 59 429 -1344
2019-02-21 10:10:24 GMT 47.153503 -1.196342 33,850 58 429 -1344
2019-02-21 10:10:18 GMT 47.153503 -1.196342 33,800 58 429 -1344
2019-02-21 10:10:15 GMT 47.151489 -1.201286 33,975 58 428 -1344
2019-02-21 10:10:12 GMT 47.147503 -1.211031 34,050 58 428 -1344
2019-02-21 10:10:08 GMT 47.143478 -1.220718 34,050 58 429 -1344
2019-02-21 10:10:05 GMT 47.140518 -1.227933 34,050 58 429 -1280
2019-02-21 10:10:02 GMT 47.137527 -1.235138 34,150 58 429 -1344
2019-02-21 10:09:58 GMT 47.133118 -1.245821 34,250 58 429 -1344
2019-02-21 10:09:55 GMT 47.127579 -1.259273 34,375 58 428 -1344
2019-02-21 10:09:52 GMT 47.122223 -1.272090 34,475 58 428 -1408
2019-02-21 10:09:48 GMT 47.122223 -1.272090 34,525 58 428 -1408
2019-02-21 10:09:44 GMT 47.118965 -1.280330 34,625 58 427 -1344
2019-02-21 10:09:36 GMT 47.110428 -1.300644 34,800 58 425 -1408
2019-02-21 10:09:33 GMT 47.107590 -1.307373 34,975 58 422 -1472
2019-02-21 10:09:30 GMT 47.103790 -1.316387 34,950 58 422 -1472
2019-02-21 10:09:27 GMT 47.101273 -1.322548 35,025 58 422 -1472
2019-02-21 10:09:20 GMT 47.094589 -1.338478 35,200 58 421 -1472
2019-02-21 10:09:17 GMT 47.091156 -1.346924 35,275 58 420 -1472
2019-02-21 10:09:14 GMT 47.088318 -1.353722 35,475 58 420 -1408
2019-02-21 10:09:10 GMT 47.084797 -1.362234 35,425 58 420 -1280
2019-02-21 10:09:06 GMT 47.079769 -1.374347 35,525 58 420 -960
2019-02-21 10:09:03 GMT 47.077721 -1.379207 35,550 58 420 -960
2019-02-21 10:09:00 GMT 47.074322 -1.387446 35,650 58 420 -1024
2019-02-21 10:08:55 GMT 47.068542 -1.401237 35,725 58 420 -1024
2019-02-21 10:08:52 GMT 47.066406 -1.406320 35,750 58 421 -1024
2019-02-21 10:08:49 GMT 47.063461 -1.413391 35,850 58 421 -1024
2019-02-21 10:08:46 GMT 47.059799 -1.422112 35,900 58 421 -960
2019-02-21 10:08:42 GMT 47.053234 -1.437871 35,950 58 421 -640
2019-02-21 10:08:39 GMT 47.053234 -1.437871 35,975 58 421 0
2019-02-21 10:08:36 GMT 47.049683 -1.446350 35,975 58 421 0
2019-02-21 10:08:32 GMT 47.045925 -1.455336 35,975 58 421 0
2019-02-21 10:08:26 GMT 47.039223 -1.471393 35,975 58 421 0
2019-02-21 10:08:23 GMT 47.037277 -1.476013 35,975 58 421 0
2019-02-21 10:08:20 GMT 47.033615 -1.484734 35,975 58 421 0
2019-02-21 10:08:17 GMT 47.031189 -1.490570 35,975 58 421 0
2019-02-21 10:08:14 GMT 47.026703 -1.501282 35,975 58 421 0
2019-02-21 10:08:10 GMT 47.023346 -1.509282 35,975 58 421 0
2019-02-21 10:08:07 GMT 47.020981 -1.514877 35,975 58 422 -128
2019-02-21 10:08:03 GMT 47.016224 -1.526255 35,975 58 422 0
2019-02-21 10:08:00 GMT 47.012833 -1.534309 35,975 58 422 0
2019-02-21 10:07:57 GMT 47.007847 -1.546185 35,975 58 422 0
2019-02-21 10:07:50 GMT 47.002956 -1.557875 36,000 58 422 -640
2019-02-21 10:07:45 GMT 46.997726 -1.570290 35,975 58 422 -128
2019-02-21 10:07:42 GMT 46.994995 -1.576820 35,975 58 422 -448
2019-02-21 10:07:38 GMT 46.991131 -1.586045 36,025 58 421 -832
2019-02-21 10:07:35 GMT 46.987976 -1.593567 36,100 58 421 -832
2019-02-21 10:07:31 GMT 46.984196 -1.602595 36,125 58 422 -896
2019-02-21 10:07:28 GMT 46.981293 -1.609634 36,250 58 421 -896
2019-02-21 10:07:22 GMT 46.974152 -1.626663 36,275 58 421 -896
2019-02-21 10:07:18 GMT 46.970604 -1.635132 36,375 58 421 -896
2019-02-21 10:07:14 GMT 46.966366 -1.645343 36,400 58 421 -896
2019-02-21 10:07:10 GMT 46.962982 -1.653305 36,450 58 421 -896
2019-02-21 10:07:07 GMT 46.960033 -1.660344 36,500 58 421 -896
2019-02-21 10:07:04 GMT 46.955799 -1.670556 36,575 58 420 -896
2019-02-21 10:07:00 GMT 46.952637 -1.678024 36,625 58 420 -896
2019-02-21 10:06:57 GMT 46.949097 -1.686472 36,700 58 420 -896
2019-02-21 10:06:54 GMT 46.946136 -1.693474 36,750 58 420 -832
2019-02-21 10:06:51 GMT 46.942345 -1.702458 36,775 58 420 -832
2019-02-21 10:06:46 GMT 46.935150 -1.719566 36,925 58 420 -832
2019-02-21 10:06:43 GMT 46.932129 -1.726845 36,925 58 420 -832
2019-02-21 10:06:40 GMT 46.932129 -1.726845 36,925 58 420 -832
2019-02-21 10:06:33 GMT 46.924759 -1.744217 37,125 58 420 -896
2019-02-21 10:06:30 GMT 46.921818 -1.751263 37,075 58 420 -896
2019-02-21 10:06:25 GMT 46.914089 -1.769574 37,175 58 420 -896
2019-02-21 10:06:22 GMT 46.914089 -1.769574 37,200 58 420 -896
2019-02-21 10:06:13 GMT 46.904022 -1.793381 37,350 58 418 -896
2019-02-21 10:06:09 GMT 46.900543 -1.801552 37,450 58 418 -960
2019-02-21 10:06:05 GMT 46.895691 -1.813087 37,500 58 417 -960
2019-02-21 10:06:01 GMT 46.892441 -1.820709 37,525 58 417 -960
2019-02-21 10:05:58 GMT 46.889420 -1.827919 37,775 58 416 -1024
2019-02-21 10:05:55 GMT 46.885273 -1.837745 37,675 58 417 -1024
2019-02-21 10:05:52 GMT 46.883377 -1.842270 37,775 58 416 -1024
2019-02-21 10:05:48 GMT 46.879406 -1.851619 37,775 58 416 -1024
2019-02-21 10:05:41 GMT 46.872253 -1.868568 37,900 58 416 -960
2019-02-21 10:05:38 GMT 46.868866 -1.876671 37,950 58 415 -832
2019-02-21 10:05:34 GMT 46.863831 -1.888577 38,000 58 415 0
2019-02-21 10:05:31 GMT 46.862694 -1.891228 38,000 58 415 0
2019-02-21 10:05:28 GMT 46.859161 -1.899563 38,000 58 415 0
2019-02-21 10:05:21 GMT 46.847717 -1.926761 38,000 58 415 0
2019-02-21 10:05:13 GMT 46.843643 -1.936340 37,975 58 416 0
2019-02-21 10:05:10 GMT 46.837696 -1.950348 37,975 58 416 0
2019-02-21 10:05:07 GMT 46.837696 -1.950348 37,975 58 416 0
2019-02-21 10:05:01 GMT 46.831741 -1.964409 37,975 58 416 0
2019-02-21 10:04:58 GMT 46.827667 -1.973989 37,975 58 416 0
2019-02-21 10:04:50 GMT 46.817863 -1.997040 37,975 58 416 0
2019-02-21 10:04:47 GMT 46.817863 -1.997040 37,975 58 416 0
2019-02-21 10:04:39 GMT 46.810043 -2.015388 38,000 58 416 0
2019-02-21 10:04:36 GMT 46.807022 -2.022556 38,000 58 416 0
2019-02-21 10:04:29 GMT 46.799286 -2.040576 38,000 58 415 0
2019-02-21 10:04:24 GMT 46.793472 -2.054169 38,000 58 415 0
2019-02-21 10:04:18 GMT 46.788815 -2.065086 38,000 57 416 0
2019-02-21 10:04:15 GMT 46.785233 -2.073401 37,975 57 416 0
2019-02-21 10:04:12 GMT 46.781227 -2.082664 37,975 57 416 0
2019-02-21 10:04:08 GMT 46.778091 -2.090015 37,975 57 417 0
2019-02-21 10:04:05 GMT 46.775314 -2.096397 37,975 57 417 0
2019-02-21 10:04:00 GMT 46.769073 -2.110849 37,975 57 416 0
2019-02-21 10:03:55 GMT 46.757492 -2.137377 37,975 57 416 0
2019-02-21 10:03:48 GMT 46.757492 -2.137377 37,975 57 417 0
2019-02-21 10:03:45 GMT 46.754196 -2.144947 37,975 57 416 0
2019-02-21 10:03:42 GMT 46.751434 -2.151260 38,000 57 416 0
2019-02-21 10:03:39 GMT 46.747787 -2.159550 37,975 57 416 0
2019-02-21 10:03:36 GMT 46.745197 -2.165474 37,975 57 416 0
2019-02-21 10:03:32 GMT 46.741055 -2.174881 38,000 57 416 0
2019-02-21 10:03:27 GMT 46.735565 -2.187418 38,000 57 416 0
2019-02-21 10:03:22 GMT 46.730904 -2.198021 38,000 57 417 0
2019-02-21 10:03:18 GMT 46.726578 -2.207977 38,000 58 416 0
2019-02-21 10:03:13 GMT 46.721455 -2.219788 38,000 57 416 0
2019-02-21 10:03:07 GMT 46.714828 -2.235249 38,000 58 417 0
2019-02-21 10:03:02 GMT 46.705582 -2.257824 38,000 59 417 0
2019-02-21 10:02:57 GMT 46.705582 -2.257824 38,000 59 417 0
2019-02-21 10:02:54 GMT 46.702103 -2.266600 38,000 59 417 0
2019-02-21 10:02:47 GMT 46.696037 -2.281792 38,000 59 417 0
2019-02-21 10:02:43 GMT 46.692173 -2.291473 38,000 59 416 0
2019-02-21 10:02:40 GMT 46.689377 -2.298487 38,000 59 416 0
2019-02-21 10:02:36 GMT 46.685612 -2.307953 38,000 59 416 0
2019-02-21 10:02:30 GMT 46.678940 -2.324613 38,000 59 416 0
2019-02-21 10:02:26 GMT 46.675278 -2.333791 38,000 59 416 0
2019-02-21 10:02:22 GMT 46.671505 -2.343246 38,000 59 416 0
2019-02-21 10:02:19 GMT 46.667641 -2.352928 38,000 59 416 0
2019-02-21 10:02:15 GMT 46.664612 -2.360386 38,000 59 416 0
2019-02-21 10:02:10 GMT 46.660583 -2.370568 38,000 59 416 0
2019-02-21 10:02:07 GMT 46.657288 -2.378741 38,000 59 416 0
2019-02-21 10:02:03 GMT 46.653580 -2.387919 38,000 59 416 0
2019-02-21 10:02:00 GMT 46.650604 -2.395432 38,000 59 416 0
2019-02-21 10:01:56 GMT 46.646805 -2.404800 38,000 59 416 0
2019-02-21 10:01:53 GMT 46.640736 -2.420013 37,975 59 416 0
2019-02-21 10:01:50 GMT 46.640736 -2.420013 37,975 59 416 0
2019-02-21 10:01:47 GMT 46.636963 -2.429452 37,975 59 416 0
2019-02-21 10:01:41 GMT 46.632214 -2.441299 38,000 59 416 0
2019-02-21 10:01:38 GMT 46.628998 -2.449281 38,000 59 416 0
2019-02-21 10:01:34 GMT 46.625233 -2.458672 38,000 59 416 0
2019-02-21 10:01:31 GMT 46.622223 -2.466163 38,000 59 416 0
2019-02-21 10:01:28 GMT 46.619041 -2.474121 38,000 59 416 0
2019-02-21 10:01:25 GMT 46.612747 -2.489810 38,000 59 416 0
2019-02-21 10:01:21 GMT 46.612747 -2.489810 38,000 59 416 0
2019-02-21 10:01:17 GMT 46.602493 -2.515400 38,000 59 416 0
2019-02-21 10:01:11 GMT 46.602493 -2.515400 38,000 59 416 0
2019-02-21 10:01:06 GMT 46.597137 -2.528999 38,000 61 416 0
2019-02-21 10:00:57 GMT 46.587982 -2.555393 37,975 64 416 0
2019-02-21 10:00:49 GMT 46.580383 -2.579175 38,000 64 416 0
2019-02-21 10:00:45 GMT 46.580383 -2.579175 38,000 64 416 0
2019-02-21 10:00:40 GMT 46.576218 -2.591166 38,000 62 416 0
2019-02-21 10:00:36 GMT 46.572006 -2.602420 38,000 56 417 0
2019-02-21 10:00:30 GMT 46.566513 -2.615952 38,000 58 416 0
2019-02-21 10:00:24 GMT 46.560802 -2.628891 38,000 50 419 0
2019-02-21 10:00:18 GMT 46.554062 -2.642815 38,000 54 417 0
2019-02-21 10:00:15 GMT 46.549259 -2.651962 38,000 50 417 0
2019-02-21 10:00:09 GMT 46.543579 -2.662175 38,000 50 417 0
2019-02-21 10:00:02 GMT 46.534874 -2.677505 38,000 50 419 0
2019-02-21 09:59:59 GMT 46.531357 -2.683813 38,000 50 417 0
2019-02-21 09:59:53 GMT 46.523376 -2.697830 37,975 50 419 0
2019-02-21 09:59:47 GMT 46.514809 -2.713005 37,975 50 417 0
2019-02-21 09:59:42 GMT 46.505859 -2.728763 37,975 50 419 0
2019-02-21 09:59:39 GMT 46.505859 -2.728763 37,975 50 419 0
2019-02-21 09:59:33 GMT 46.497398 -2.743698 37,975 50 419 0
2019-02-21 09:59:28 GMT 46.492355 -2.752611 37,975 50 419 0
2019-02-21 09:59:21 GMT 46.483852 -2.767525 37,975 50 419 0
2019-02-21 09:59:17 GMT 46.478916 -2.776176 37,975 50 419 0
2019-02-21 09:59:13 GMT 46.473984 -2.784828 37,975 50 419 0
2019-02-21 09:59:10 GMT 46.470428 -2.791063 38,000 50 419 0
2019-02-21 09:59:07 GMT 46.466583 -2.797806 38,000 50 419 0
2019-02-21 09:59:00 GMT 46.457840 -2.813103 38,000 50 419 0
2019-02-21 09:58:57 GMT 46.454865 -2.818328 38,000 50 419 0
2019-02-21 09:58:52 GMT 46.448685 -2.829113 38,000 50 419 0
2019-02-21 09:58:49 GMT 46.444977 -2.835611 38,000 50 420 0
2019-02-21 09:58:46 GMT 46.440536 -2.843382 38,000 50 419 0
2019-02-21 09:58:41 GMT 46.434227 -2.854385 38,000 50 419 0
2019-02-21 09:58:38 GMT 46.423233 -2.873662 37,975 50 419 0
2019-02-21 09:58:32 GMT 46.423233 -2.873662 37,975 50 419 0
2019-02-21 09:58:27 GMT 46.417934 -2.882950 38,000 50 420 0
2019-02-21 09:58:20 GMT 46.408905 -2.898716 38,000 50 421 0
2019-02-21 09:58:17 GMT 46.404922 -2.905616 38,000 50 420 0
2019-02-21 09:58:12 GMT 46.397781 -2.918210 38,000 50 420 0
2019-02-21 09:58:06 GMT 46.391956 -2.928337 37,975 50 420 0
2019-02-21 09:57:59 GMT 46.383301 -2.943512 37,975 50 420 0
2019-02-21 09:57:54 GMT 46.376877 -2.954773 37,975 50 420 0
2019-02-21 09:57:50 GMT 46.372009 -2.963227 38,000 50 420 0
2019-02-21 09:57:44 GMT 46.364212 -2.976814 38,000 50 420 0
2019-02-21 09:57:40 GMT 46.358414 -2.987008 38,000 50 420 0
2019-02-21 09:57:35 GMT 46.352921 -2.996521 38,000 50 421 0
2019-02-21 09:57:29 GMT 46.346104 -3.008400 38,000 50 421 0
2019-02-21 09:57:24 GMT 46.338936 -3.020966 38,000 50 421 0
2019-02-21 09:57:19 GMT 46.333557 -3.030217 38,000 50 421 0
2019-02-21 09:57:13 GMT 46.326225 -3.043007 38,000 50 421 0
2019-02-21 09:57:09 GMT 46.320267 -3.053375 38,000 50 421 0
2019-02-21 09:57:03 GMT 46.312912 -3.066056 38,000 50 421 0
2019-02-21 09:56:59 GMT 46.307922 -3.074698 38,000 50 421 0
2019-02-21 09:56:53 GMT 46.301086 -3.086609 38,000 50 421 0
2019-02-21 09:56:47 GMT 46.292770 -3.101092 38,000 50 421 0
2019-02-21 09:56:43 GMT 46.287914 -3.109474 38,000 50 421 0
2019-02-21 09:56:38 GMT 46.281677 -3.120255 38,000 50 421 0
2019-02-21 09:56:32 GMT 46.274227 -3.133232 38,000 50 421 0
2019-02-21 09:56:28 GMT 46.269333 -3.141621 38,000 50 421 0
2019-02-21 09:56:23 GMT 46.263611 -3.151602 38,000 50 421 0
2019-02-21 09:56:20 GMT 46.258163 -3.161048 38,000 50 421 0
2019-02-21 09:56:16 GMT 46.250534 -3.174225 38,000 50 421 0
2019-02-21 09:56:13 GMT 46.250534 -3.174225 38,000 50 421 0
2019-02-21 09:56:09 GMT 46.246063 -3.181984 38,000 50 421 0
2019-02-21 09:56:03 GMT 46.238567 -3.194893 38,000 50 421 0
2019-02-21 09:56:00 GMT 46.234844 -3.201347 38,000 50 421 0
2019-02-21 09:55:56 GMT 46.229965 -3.209750 38,000 50 421 0
2019-02-21 09:55:53 GMT 46.226093 -3.216454 38,000 50 420 0
2019-02-21 09:55:49 GMT 46.220879 -3.225449 38,000 50 420 0
2019-02-21 09:55:43 GMT 46.213150 -3.238838 38,000 50 420 0
2019-02-21 09:55:40 GMT 46.209503 -3.245053 38,000 50 421 0
2019-02-21 09:55:37 GMT 46.205795 -3.251484 38,000 50 421 0
2019-02-21 09:55:33 GMT 46.200676 -3.260330 38,000 50 421 0
2019-02-21 09:55:29 GMT 46.194305 -3.271313 38,000 50 421 0
2019-02-21 09:55:24 GMT 46.189819 -3.279017 38,000 50 421 0
2019-02-21 09:55:19 GMT 46.184052 -3.288931 38,000 50 420 0
2019-02-21 09:55:16 GMT 46.179794 -3.296233 38,000 50 420 0
2019-02-21 09:55:11 GMT 46.173569 -3.307019 38,000 49 420 0
2019-02-21 09:55:08 GMT 46.169586 -3.313852 38,000 50 420 0
2019-02-21 09:54:59 GMT 46.158600 -3.332743 38,000 49 420 0
2019-02-21 09:54:55 GMT 46.153610 -3.341385 38,000 50 420 0
2019-02-21 09:54:47 GMT 46.143127 -3.359405 38,000 50 421 0
2019-02-21 09:54:40 GMT 46.134933 -3.373607 38,000 50 421 0
2019-02-21 09:54:35 GMT 46.129078 -3.383720 38,000 50 420 0
2019-02-21 09:54:28 GMT 46.120468 -3.398527 38,000 50 420 0
2019-02-21 09:54:25 GMT 46.116604 -3.405212 37,975 50 420 0
2019-02-21 09:54:21 GMT 46.111725 -3.413600 37,975 50 421 0
2019-02-21 09:54:13 GMT 46.101658 -3.430962 37,975 50 420 0
2019-02-21 09:54:10 GMT 46.098038 -3.437180 37,975 50 420 0
2019-02-21 09:54:03 GMT 46.089066 -3.452655 38,000 50 420 0
2019-02-21 09:53:57 GMT 46.081688 -3.465294 38,000 50 420 0
2019-02-21 09:53:53 GMT 46.076939 -3.473465 38,000 50 421 0
2019-02-21 09:53:50 GMT 46.072189 -3.481567 38,000 49 420 0
2019-02-21 09:53:43 GMT 46.063671 -3.496124 38,000 49 420 0
2019-02-21 09:53:32 GMT 46.050404 -3.518784 38,000 49 420 0
2019-02-21 09:53:29 GMT 46.046494 -3.525406 37,975 49 420 0
2019-02-21 09:53:21 GMT 46.036114 -3.543091 37,975 49 420 0
2019-02-21 09:53:18 GMT 46.032108 -3.549957 38,000 49 420 0
2019-02-21 09:53:12 GMT 46.025360 -3.561493 38,000 49 420 0
2019-02-21 09:53:09 GMT 46.020950 -3.568949 38,000 49 420 0
2019-02-21 09:53:02 GMT 46.011814 -3.584564 37,975 50 421 0
2019-02-21 09:52:59 GMT 46.008911 -3.589515 38,000 49 420 0
2019-02-21 09:52:56 GMT 46.004654 -3.596750 38,000 50 421 0
2019-02-21 09:52:49 GMT 45.995522 -3.612373 38,000 50 421 0
2019-02-21 09:52:39 GMT 45.983597 -3.632656 38,000 49 421 0
2019-02-21 09:52:35 GMT 45.978947 -3.640526 38,000 49 421 0
2019-02-21 09:52:26 GMT 45.967915 -3.659271 37,975 49 421 0
2019-02-21 09:52:18 GMT 45.948315 -3.692574 38,000 49 421 0
2019-02-21 09:52:06 GMT 45.934536 -3.716057 38,000 49 421 0
2019-02-21 09:51:55 GMT 45.929123 -3.725236 38,000 50 421 0
2019-02-21 09:51:46 GMT 45.917454 -3.745102 38,000 49 421 0
2019-02-21 09:51:37 GMT 45.905273 -3.765765 38,000 49 422 0
2019-02-21 09:51:34 GMT 45.902138 -3.771126 38,000 49 422 0
2019-02-21 09:51:28 GMT 45.895061 -3.783005 38,000 49 422 0
2019-02-21 09:51:25 GMT 45.891056 -3.789871 38,000 49 422 0
2019-02-21 09:51:14 GMT 45.877304 -3.813060 38,000 49 422 0
2019-02-21 09:51:04 GMT 45.864441 -3.834764 38,000 49 422 0
2019-02-21 09:50:54 GMT 45.851486 -3.856682 37,975 49 422 0
2019-02-21 09:50:43 GMT 45.838314 -3.878792 37,975 49 422 0
2019-02-21 09:50:33 GMT 45.825073 -3.901084 38,000 49 422 0
2019-02-21 09:50:22 GMT 45.811432 -3.924062 37,975 49 422 0
2019-02-21 09:50:11 GMT 45.798111 -3.946637 38,000 49 422 0
2019-02-21 09:50:00 GMT 45.784126 -3.970322 38,000 49 422 0
2019-02-21 09:49:50 GMT 45.771511 -3.991608 38,000 49 422 0
2019-02-21 09:49:40 GMT 45.758057 -4.014130 38,000 49 423 0
2019-02-21 09:49:29 GMT 45.744003 -4.037677 38,000 49 422 0
2019-02-21 09:49:22 GMT 45.735992 -4.051003 38,000 49 423 0
2019-02-21 09:49:18 GMT 45.730774 -4.059716 38,000 49 423 0
2019-02-21 09:49:08 GMT 45.717232 -4.082451 38,000 49 422 0
2019-02-21 09:48:58 GMT 45.704910 -4.103059 38,000 49 423 0
2019-02-21 09:48:53 GMT 45.698704 -4.113487 38,000 49 423 0
2019-02-21 09:48:48 GMT 45.692001 -4.124763 38,000 49 423 0
2019-02-21 09:48:42 GMT 45.684505 -4.137314 38,000 49 424 0
2019-02-21 09:48:36 GMT 45.677662 -4.148781 37,975 49 424 0
2019-02-21 09:48:32 GMT 45.671951 -4.158392 38,000 49 423 0
2019-02-21 09:48:23 GMT 45.659546 -4.179159 38,000 49 423 0
2019-02-21 09:48:15 GMT 45.650799 -4.193825 38,000 49 422 0
2019-02-21 09:48:11 GMT 45.645813 -4.202070 38,000 49 422 0
2019-02-21 09:48:04 GMT 45.637207 -4.216405 38,000 49 422 0
2019-02-21 09:48:00 GMT 45.624172 -4.238113 37,975 49 421 0
2019-02-21 09:47:54 GMT 45.624172 -4.238113 37,975 49 421 0
2019-02-21 09:47:51 GMT 45.620224 -4.244675 37,975 49 421 0
2019-02-21 09:47:44 GMT 45.611069 -4.259815 38,000 49 421 0
2019-02-21 09:47:40 GMT 45.606388 -4.267639 38,000 49 421 0
2019-02-21 09:47:33 GMT 45.597656 -4.282122 38,000 49 421 0
2019-02-21 09:47:23 GMT 45.584473 -4.304028 37,975 49 421 0
2019-02-21 09:47:20 GMT 45.580273 -4.310966 38,000 49 421 0
2019-02-21 09:47:10 GMT 45.568497 -4.330556 38,000 49 421 0
2019-02-21 09:47:00 GMT 45.554111 -4.354294 37,975 49 421 0
2019-02-21 09:46:49 GMT 45.541683 -4.374970 38,000 49 421 0
2019-02-21 09:46:39 GMT 45.528229 -4.397278 37,975 49 422 0
2019-02-21 09:46:29 GMT 45.516129 -4.417289 38,000 49 422 0
2019-02-21 09:46:19 GMT 45.503044 -4.439079 38,000 49 422 0
2019-02-21 09:46:09 GMT 45.490952 -4.459141 38,000 49 424 0
2019-02-21 09:45:59 GMT 45.475891 -4.484057 37,975 49 424 0
2019-02-21 09:45:48 GMT 45.463623 -4.504329 37,975 49 424 0
2019-02-21 09:45:38 GMT 45.450806 -4.525452 37,975 49 425 0
2019-02-21 09:45:26 GMT 45.435379 -4.550825 37,975 49 426 0
2019-02-21 09:45:17 GMT 45.424026 -4.569462 37,975 49 426 0
2019-02-21 09:45:06 GMT 45.410339 -4.591958 37,975 49 427 0
2019-02-21 09:44:55 GMT 45.396019 -4.615464 37,975 49 428 0
2019-02-21 09:44:44 GMT 45.381729 -4.638843 38,000 49 428 0
2019-02-21 09:44:35 GMT 45.369019 -4.659677 38,000 49 429 0
2019-02-21 09:44:26 GMT 45.357971 -4.677756 38,000 49 430 0
2019-02-21 09:44:23 GMT 45.354168 -4.683927 38,000 49 430 0
2019-02-21 09:44:14 GMT 45.341694 -4.704426 38,000 49 431 0
2019-02-21 09:44:03 GMT 45.327637 -4.727538 38,000 49 431 0
2019-02-21 09:43:55 GMT 45.317486 -4.744218 38,000 49 431 0
2019-02-21 09:43:52 GMT 45.313576 -4.750649 38,000 49 431 0
2019-02-21 09:43:45 GMT 45.300385 -4.772317 38,000 49 432 0
2019-02-21 09:43:25 GMT 45.277588 -4.809592 37,975 49 433 0
2019-02-21 09:43:21 GMT 45.273651 -4.816001 38,000 49 433 0
2019-02-21 09:43:15 GMT 45.264221 -4.831434 38,000 49 433 0
2019-02-21 09:43:09 GMT 45.257675 -4.842159 38,000 49 434 0
2019-02-21 09:43:04 GMT 45.250305 -4.854191 37,975 48 433 0
2019-02-21 09:42:59 GMT 45.243713 -4.864851 37,975 48 433 0
2019-02-21 09:42:53 GMT 45.236618 -4.876426 38,000 49 434 0
2019-02-21 09:42:49 GMT 45.231079 -4.885450 38,000 48 433 0
2019-02-21 09:42:43 GMT 45.222931 -4.898725 38,000 49 434 0
2019-02-21 09:42:39 GMT 45.217770 -4.907070 38,000 49 434 0
2019-02-21 09:42:32 GMT 45.206589 -4.925276 38,000 48 433 0
2019-02-21 09:42:28 GMT 45.202782 -4.931455 38,000 48 433 0
2019-02-21 09:42:21 GMT 45.193565 -4.946393 38,000 48 433 0
2019-02-21 09:42:11 GMT 45.180389 -4.967830 38,000 48 433 0
2019-02-21 09:42:03 GMT 45.169590 -4.985314 38,000 48 433 0
2019-02-21 09:41:53 GMT 45.155960 -5.007281 38,000 48 433 0
2019-02-21 09:41:42 GMT 45.142914 -5.028389 38,000 48 433 0
2019-02-21 09:41:31 GMT 45.128265 -5.052011 37,975 48 433 0
2019-02-21 09:41:20 GMT 45.114147 -5.074746 37,975 48 433 0
2019-02-21 09:40:44 GMT 45.066383 -5.151851 37,975 48 434 0
2019-02-21 09:40:40 GMT 45.060333 -5.161699 37,975 48 434 0
2019-02-21 09:40:30 GMT 45.046967 -5.183258 38,000 48 435 0
2019-02-21 09:40:19 GMT 45.032913 -5.205885 38,000 48 435 0
2019-02-21 09:40:09 GMT 45.020142 -5.226353 38,000 48 435 0
2019-02-21 09:39:59 GMT 45.006470 -5.248316 38,000 48 435 0
2019-02-21 09:39:49 GMT 44.992924 -5.270088 37,975 48 435 0
2019-02-21 09:39:37 GMT 44.977158 -5.295541 38,000 48 435 0
2019-02-21 09:39:28 GMT 44.965088 -5.314904 38,000 48 435 0
2019-02-21 09:39:08 GMT 44.938980 -5.356881 38,000 48 434 0
2019-02-21 09:38:58 GMT 44.923702 -5.381291 38,000 48 434 0
2019-02-21 09:38:48 GMT 44.912430 -5.399323 38,000 48 433 0
2019-02-21 09:38:38 GMT 44.898235 -5.421954 38,000 48 433 0
2019-02-21 09:38:27 GMT 44.883667 -5.445132 38,000 48 432 0
2019-02-21 09:38:14 GMT 44.866882 -5.471911 38,000 48 432 0
2019-02-21 09:38:02 GMT 44.850613 -5.497786 38,000 48 431 0
2019-02-21 09:37:16 GMT 44.790848 -5.593022 38,000 48 427 0
2019-02-21 09:37:06 GMT 44.777481 -5.614275 37,975 48 427 0
2019-02-21 09:36:40 GMT 44.743515 -5.668161 38,000 48 425 0
2019-02-21 09:36:31 GMT 44.731796 -5.686798 37,975 48 425 0
2019-02-21 09:36:25 GMT 44.723850 -5.699359 37,975 48 425 0
2019-02-21 09:36:14 GMT 44.709641 -5.721784 38,000 48 424 0
2019-02-21 09:34:55 GMT 44.607517 -5.882643 37,975 48 420 0
2019-02-21 09:33:32 GMT 44.487694 -6.030891 38,000 39 415 0
2019-02-21 09:33:23 GMT 44.475311 -6.044900 38,000 39 415 0
2019-02-21 09:31:59 GMT 44.349426 -6.186414 38,000 38 414 0
2019-02-21 09:31:28 GMT 44.302135 -6.239163 37,975 38 411 0
2019-02-21 09:31:15 GMT 44.283375 -6.259996 38,000 38 411 0
2019-02-21 09:31:04 GMT 44.265266 -6.280160 37,975 38 411 0
2019-02-21 09:30:52 GMT 44.249313 -6.297913 38,000 38 412 0
2019-02-21 09:30:44 GMT 44.235947 -6.312888 38,000 38 412 0
2019-02-21 09:30:31 GMT 44.217819 -6.333095 38,000 38 412 0
2019-02-21 09:30:17 GMT 44.196556 -6.356864 38,000 38 413 0
2019-02-21 09:30:11 GMT 44.188660 -6.365683 38,000 38 413 0
2019-02-21 09:30:04 GMT 44.176483 -6.379352 37,975 39 413 -64
2019-02-21 09:29:53 GMT 44.161221 -6.396659 38,000 39 414 -64
2019-02-21 09:29:43 GMT 44.144714 -6.415185 38,000 38 414 0
2019-02-21 09:29:32 GMT 44.129745 -6.431856 37,975 38 414 0
2019-02-21 09:29:21 GMT 44.113586 -6.449805 37,975 38 415 64
2019-02-21 09:29:10 GMT 44.097584 -6.467678 37,975 38 415 -64
2019-02-21 09:29:00 GMT 44.082317 -6.484746 37,975 38 416 0
2019-02-21 09:28:46 GMT 44.061600 -6.507830 38,000 38 417 0
2019-02-21 09:28:39 GMT 44.050148 -6.520517 37,975 38 417 0
2019-02-21 09:28:29 GMT 44.035065 -6.537323 38,000 38 419 -64
2019-02-21 09:28:17 GMT 44.017365 -6.556986 38,000 38 419 192
2019-02-21 09:28:07 GMT 44.002338 -6.573683 37,975 38 424 0
2019-02-21 09:27:57 GMT 43.986511 -6.591158 38,000 38 426 0
2019-02-21 09:27:45 GMT 43.967842 -6.611677 38,000 38 426 -64
2019-02-21 09:27:36 GMT 43.954250 -6.626587 38,000 38 426 0
2019-02-21 09:27:25 GMT 43.937393 -6.645068 38,000 38 426 0
2019-02-21 09:27:13 GMT 43.919815 -6.664422 38,000 38 426 0
2019-02-21 09:27:04 GMT 43.904343 -6.681412 38,000 38 426 0
2019-02-21 09:26:53 GMT 43.887493 -6.699960 38,000 38 427 0
2019-02-21 09:26:44 GMT 43.873444 -6.715457 38,000 38 427 0
2019-02-21 09:26:33 GMT 43.857189 -6.733311 38,000 38 427 0
2019-02-21 09:26:22 GMT 43.839825 -6.752407 38,000 38 429 0
2019-02-21 09:26:12 GMT 43.823868 -6.769878 38,000 38 429 0
2019-02-21 09:26:01 GMT 43.808029 -6.787251 38,000 38 429 0
2019-02-21 09:25:50 GMT 43.790760 -6.806226 37,975 38 429 0
2019-02-21 09:25:40 GMT 43.774384 -6.824107 38,000 38 430 0
2019-02-21 09:25:28 GMT 43.756123 -6.844090 38,000 38 431 0
2019-02-21 09:25:18 GMT 43.738945 -6.862858 38,000 38 430 0
2019-02-21 09:25:09 GMT 43.726147 -6.876787 37,975 38 431 0
2019-02-21 09:24:58 GMT 43.708145 -6.896476 38,000 38 432 0
2019-02-21 09:24:47 GMT 43.692169 -6.913850 38,000 38 432 0
2019-02-21 09:24:38 GMT 43.677265 -6.930084 37,975 38 432 0
2019-02-21 09:24:27 GMT 43.660927 -6.947872 38,000 38 432 0
2019-02-21 09:24:16 GMT 43.643002 -6.967359 37,975 38 432 0
2019-02-21 09:24:07 GMT 43.627121 -6.984558 38,000 38 433 0
2019-02-21 09:23:56 GMT 43.611694 -7.001293 37,975 38 434 0
2019-02-21 09:23:45 GMT 43.594391 -7.020136 37,975 38 434 0
2019-02-21 09:23:35 GMT 43.578323 -7.037637 38,000 38 434 0
2019-02-21 09:23:25 GMT 43.560974 -7.056480 38,000 38 434 0
2019-02-21 09:23:14 GMT 43.545708 -7.073168 37,975 38 436 0
2019-02-21 09:23:03 GMT 43.528904 -7.091413 37,975 38 437 0
2019-02-21 09:22:52 GMT 43.511307 -7.110582 37,975 38 438 0
2019-02-21 09:22:42 GMT 43.495056 -7.128211 38,000 38 439 0
2019-02-21 09:22:32 GMT 43.478298 -7.146410 38,000 38 440 0
2019-02-21 09:22:14 GMT 43.447903 -7.179304 38,000 38 441 0
2019-02-21 09:22:11 GMT 43.420761 -7.208500 38,000 38 442 0
2019-02-21 09:21:57 GMT 43.420761 -7.208500 38,000 38 442 0
2019-02-21 09:21:48 GMT 43.408054 -7.222203 38,000 38 442 0
2019-02-21 09:21:39 GMT 43.394028 -7.237244 38,000 38 443 0
2019-02-21 09:21:29 GMT 43.376953 -7.255512 38,000 38 443 0
2019-02-21 09:21:18 GMT 43.359360 -7.274388 38,000 38 443 0
2019-02-21 09:21:06 GMT 43.341156 -7.293900 38,000 38 443 0
2019-02-21 09:20:54 GMT 43.321472 -7.314914 37,975 38 443 0
2019-02-21 09:20:45 GMT 43.305500 -7.332066 38,000 38 442 64
2019-02-21 09:20:35 GMT 43.290848 -7.347810 37,975 38 443 -128
2019-02-21 09:20:25 GMT 43.274414 -7.365439 37,975 38 443 -192
2019-02-21 09:20:12 GMT 43.254292 -7.386932 37,975 38 441 576
2019-02-21 09:20:04 GMT 43.240139 -7.402104 37,850 37 441 768
2019-02-21 09:19:53 GMT 43.222641 -7.420818 37,700 37 440 960
2019-02-21 09:19:40 GMT 43.194241 -7.451085 37,450 37 440 704
2019-02-21 09:19:32 GMT 43.188629 -7.457098 37,400 37 440 704
2019-02-21 09:19:22 GMT 43.173248 -7.473514 37,275 37 440 832
2019-02-21 09:19:13 GMT 43.157867 -7.489929 37,075 37 440 832
2019-02-21 09:19:01 GMT 43.139923 -7.509091 36,950 37 440 1024
2019-02-21 09:18:51 GMT 43.122253 -7.527870 36,775 38 440 1024
2019-02-21 09:18:39 GMT 43.104115 -7.547215 36,550 38 440 1152
2019-02-21 09:18:29 GMT 43.087555 -7.564917 36,375 38 441 1088
2019-02-21 09:18:19 GMT 43.071762 -7.581780 36,125 37 443 1280
2019-02-21 09:18:09 GMT 43.055511 -7.598962 36,000 37 444 0
2019-02-21 09:17:58 GMT 43.038151 -7.617384 36,000 37 444 0
2019-02-21 09:17:47 GMT 43.020447 -7.636137 36,000 37 444 0
2019-02-21 09:17:37 GMT 43.003422 -7.654201 36,000 37 446 0
2019-02-21 09:17:27 GMT 42.986298 -7.672289 36,000 37 446 0
2019-02-21 09:17:15 GMT 42.967117 -7.692665 36,000 37 446 0
2019-02-21 09:17:07 GMT 42.953751 -7.706781 36,000 37 446 0
2019-02-21 09:16:55 GMT 42.935806 -7.725752 36,000 37 448 0
2019-02-21 09:16:46 GMT 42.919739 -7.742679 35,975 37 448 0
2019-02-21 09:16:35 GMT 42.902390 -7.761010 35,975 37 449 0
2019-02-21 09:16:24 GMT 42.884808 -7.779497 35,975 37 450 0
2019-02-21 09:16:12 GMT 42.864090 -7.801339 35,975 37 450 0
2019-02-21 09:16:02 GMT 42.848099 -7.818114 36,000 37 450 0
2019-02-21 09:15:53 GMT 42.833908 -7.832996 36,000 37 451 0
2019-02-21 09:15:43 GMT 42.816788 -7.851009 36,000 37 450 0
2019-02-21 09:15:33 GMT 42.798340 -7.870393 36,000 37 449 0
2019-02-21 09:15:21 GMT 42.781693 -7.887864 35,975 37 451 0
2019-02-21 09:15:11 GMT 42.764374 -7.906036 36,000 37 452 -64
2019-02-21 09:14:58 GMT 42.743706 -7.927658 35,975 37 451 448
2019-02-21 09:14:50 GMT 42.729721 -7.942304 35,825 37 450 1088
2019-02-21 09:14:39 GMT 42.711075 -7.961830 35,600 37 451 1088
2019-02-21 09:14:30 GMT 42.695389 -7.978259 35,425 37 450 960
2019-02-21 09:14:17 GMT 42.675087 -7.999452 35,225 37 450 960
2019-02-21 09:14:09 GMT 42.660736 -8.014464 35,075 37 449 960
2019-02-21 09:13:58 GMT 42.643295 -8.032691 34,875 37 449 1088
2019-02-21 09:13:48 GMT 42.625648 -8.051126 34,675 37 450 1280
2019-02-21 09:13:37 GMT 42.608845 -8.068628 34,450 37 450 1152
2019-02-21 09:13:26 GMT 42.591061 -8.087215 34,125 37 450 1280
2019-02-21 09:13:16 GMT 42.572254 -8.106888 33,925 37 450 1344
2019-02-21 09:13:05 GMT 42.556381 -8.123432 33,750 37 452 1344
2019-02-21 09:12:54 GMT 42.537525 -8.143041 33,475 37 452 1408
2019-02-21 09:12:44 GMT 42.521278 -8.159967 33,250 37 452 1280
2019-02-21 09:12:33 GMT 42.502533 -8.179446 32,900 37 452 1344
2019-02-21 09:12:23 GMT 42.486458 -8.196184 32,725 37 452 1472
2019-02-21 09:12:16 GMT 42.472492 -8.210683 32,525 37 453 1344
2019-02-21 09:12:11 GMT 42.467651 -8.215714 32,475 37 453 1408
2019-02-21 09:12:01 GMT 42.450195 -8.233806 32,200 37 453 1600
2019-02-21 09:11:54 GMT 42.438034 -8.246363 32,000 37 454 1536
2019-02-21 09:11:50 GMT 42.432037 -8.252543 31,900 37 454 1536
2019-02-21 09:11:45 GMT 42.422699 -8.262218 31,750 37 454 1600
2019-02-21 09:11:40 GMT 42.414490 -8.270661 31,625 37 454 1600
2019-02-21 09:11:34 GMT 42.402969 -8.282568 31,425 37 455 1792
2019-02-21 09:11:27 GMT 42.394100 -8.291676 31,275 37 455 1728
2019-02-21 09:11:24 GMT 42.388046 -8.297871 31,150 37 456 1728
2019-02-21 09:11:18 GMT 42.378319 -8.307900 31,000 37 456 1792
2019-02-21 09:11:13 GMT 42.369240 -8.317225 30,825 37 457 1856
2019-02-21 09:11:08 GMT 42.362320 -8.324266 30,700 37 458 1920
2019-02-21 09:11:04 GMT 42.353897 -8.332943 30,525 37 458 1856
2019-02-21 09:10:58 GMT 42.344940 -8.342136 30,350 37 458 1920
2019-02-21 09:10:53 GMT 42.335491 -8.351845 30,175 37 460 2048
2019-02-21 09:10:46 GMT 42.324829 -8.362780 29,975 37 461 1856
2019-02-21 09:10:40 GMT 42.314121 -8.373754 29,775 37 461 1984
2019-02-21 09:10:36 GMT 42.307800 -8.380196 29,650 37 463 1920
2019-02-21 09:10:33 GMT 42.301506 -8.386656 29,525 37 463 1472
2019-02-21 09:10:27 GMT 42.290085 -8.398361 29,375 37 462 1344
2019-02-21 09:10:23 GMT 42.284317 -8.404291 29,300 37 462 1344
2019-02-21 09:10:16 GMT 42.272736 -8.416152 29,125 37 461 1472
2019-02-21 09:10:13 GMT 42.267654 -8.421333 29,050 37 461 1472
2019-02-21 09:10:03 GMT 42.250160 -8.439161 28,800 37 460 1536
2019-02-21 09:09:53 GMT 42.232189 -8.457556 28,525 37 459 1536
2019-02-21 09:09:44 GMT 42.212917 -8.477294 28,250 37 458 1472
2019-02-21 09:09:34 GMT 42.201645 -8.488936 27,775 37 457 1472
2019-02-21 09:09:31 GMT 42.196609 -8.494117 28,000 37 456 1472
2019-02-21 09:09:22 GMT 42.180798 -8.510700 27,775 33 453 1536
2019-02-21 09:09:14 GMT 42.167019 -8.523666 27,550 31 452 1472
2019-02-21 09:09:10 GMT 42.160591 -8.528968 27,475 29 451 1536
2019-02-21 09:09:01 GMT 42.143974 -8.540593 27,250 23 447 1408
2019-02-21 09:08:51 GMT 42.124004 -8.550940 26,975 16 443 1664
2019-02-21 09:08:40 GMT 42.104782 -8.557226 26,725 8 437 1536
2019-02-21 09:08:32 GMT 42.087738 -8.560266 26,500 6 436 1600
2019-02-21 09:08:21 GMT 42.064510 -8.563204 26,200 3 432 1600
2019-02-21 09:08:18 GMT 42.059921 -8.563531 26,125 1 432 1664
2019-02-21 09:08:10 GMT 42.044167 -8.564034 25,925 1 430 1600
2019-02-21 09:08:01 GMT 42.025314 -8.564529 25,650 1 429 1728
2019-02-21 09:07:57 GMT 42.017586 -8.564673 25,550 1 428 1664
2019-02-21 09:07:51 GMT 42.004131 -8.564993 25,350 1 427 1600
2019-02-21 09:07:37 GMT 41.976990 -8.565631 25,025 0 424 1664
2019-02-21 09:07:29 GMT 41.962692 -8.565965 24,750 0 422 1792
2019-02-21 09:07:19 GMT 41.942825 -8.566465 24,425 0 420 1856
2019-02-21 09:07:08 GMT 41.923267 -8.566909 24,125 0 418 1920
2019-02-21 09:06:58 GMT 41.903046 -8.567401 23,775 1 416 2048
2019-02-21 09:06:46 GMT 41.880386 -8.567900 23,375 1 414 2112
2019-02-21 09:06:36 GMT 41.860107 -8.568400 23,000 0 413 2240
2019-02-21 09:06:26 GMT 41.841797 -8.568837 22,625 0 412 2304
2019-02-21 09:06:15 GMT 41.821087 -8.569272 22,200 0 411 2560
2019-02-21 09:06:05 GMT 41.801674 -8.569719 21,775 0 411 2176
2019-02-21 09:05:55 GMT 41.781982 -8.570166 21,425 0 409 2176
2019-02-21 09:05:42 GMT 41.756516 -8.570772 20,925 0 402 2624
2019-02-21 09:05:34 GMT 41.740971 -8.571061 20,600 0 404 2432
2019-02-21 09:05:22 GMT 41.721771 -8.571521 20,175 0 402 2560
2019-02-21 09:05:12 GMT 41.702240 -8.571955 19,725 1 401 2560
2019-02-21 09:05:02 GMT 41.681896 -8.572402 19,250 1 399 2624
2019-02-21 09:04:59 GMT 41.677101 -8.572530 19,125 1 398 2752
2019-02-21 09:04:51 GMT 41.662716 -8.572913 18,775 1 398 2752
2019-02-21 09:04:48 GMT 41.657364 -8.573019 18,650 1 398 2752
2019-02-21 09:04:40 GMT 41.643585 -8.573360 18,300 1 397 2816
2019-02-21 09:04:36 GMT 41.634201 -8.573581 18,050 1 396 2752
2019-02-21 09:04:29 GMT 41.623215 -8.573830 17,775 1 395 2880
2019-02-21 09:04:26 GMT 41.617561 -8.573999 17,650 1 395 2752
2019-02-21 09:04:19 GMT 41.604584 -8.574267 17,325 1 394 2624
2019-02-21 09:04:15 GMT 41.597450 -8.574446 17,150 1 393 2688
2019-02-21 09:04:08 GMT 41.584579 -8.574704 16,850 0 391 2432
2019-02-21 09:04:01 GMT 41.571709 -8.575021 16,550 0 391 2432
2019-02-21 09:03:58 GMT 41.566307 -8.575148 16,425 0 389 2496
2019-02-21 09:03:55 GMT 41.560905 -8.575212 16,300 0 388 2624
2019-02-21 09:03:48 GMT 41.546940 -8.575468 15,950 0 386 2624
2019-02-21 09:03:35 GMT 41.526535 -8.575890 15,450 0 382 2816
2019-02-21 09:03:26 GMT 41.508720 -8.576234 15,000 0 379 2496
2019-02-21 09:03:15 GMT 41.491592 -8.576554 14,600 0 375 2496
2019-02-21 09:03:04 GMT 41.472061 -8.576889 14,100 0 371 2752
2019-02-21 09:02:54 GMT 41.455261 -8.577139 13,675 0 369 2816
2019-02-21 09:02:43 GMT 41.436333 -8.577512 13,075 0 368 3520
2019-02-21 09:02:33 GMT 41.418411 -8.577825 12,475 0 370 3712
2019-02-21 09:02:22 GMT 41.400768 -8.578214 11,850 0 372 3840
2019-02-21 09:02:13 GMT 41.382797 -8.578637 11,375 1 372 1920
2019-02-21 09:02:01 GMT 41.364082 -8.579261 11,150 1 362 960
2019-02-21 09:01:52 GMT 41.347778 -8.579956 10,975 2 349 896
2019-02-21 09:01:40 GMT 41.330193 -8.580822 10,800 2 336 1088
2019-02-21 09:01:29 GMT 41.306213 -8.581909 10,525 1 315 1408
2019-02-21 09:01:19 GMT 41.299255 -8.582092 10,375 0 309 3136
2019-02-21 09:01:13 GMT 41.289551 -8.582031 10,025 359 309 2944
2019-02-21 09:01:10 GMT 41.283688 -8.581696 9,850 357 308 2752
2019-02-21 09:01:02 GMT 41.274994 -8.580994 9,550 356 307 2816
2019-02-21 09:00:57 GMT 41.267208 -8.580135 9,300 355 306 2880
2019-02-21 09:00:49 GMT 41.254826 -8.578200 8,875 352 305 3072
2019-02-21 09:00:37 GMT 41.239380 -8.574707 8,325 349 303 2624
2019-02-21 09:00:26 GMT 41.224426 -8.570959 7,800 350 300 3328
2019-02-21 09:00:17 GMT 41.210175 -8.568481 7,225 358 301 3520
2019-02-21 09:00:05 GMT 41.195160 -8.569580 6,550 10 303 3584
2019-02-21 08:59:53 GMT 41.179688 -8.576843 5,375 47 292 3008
2019-02-21 08:59:44 GMT 41.168610 -8.588013 5,425 44 293 3136
2019-02-21 08:59:34 GMT 41.161560 -8.600830 4,975 61 285 2752
2019-02-21 08:59:25 GMT 41.157253 -8.617276 4,475 81 268 2112
2019-02-21 08:59:14 GMT 41.157623 -8.634817 4,200 104 242 1152
2019-02-21 08:59:10 GMT 41.158371 -8.638188 4,200 104 242 1152
2019-02-21 08:59:03 GMT 41.161377 -8.646667 4,025 124 219 1792
2019-02-21 08:58:54 GMT 41.168106 -8.656738 3,650 143 204 1984
2019-02-21 08:58:43 GMT 41.176666 -8.662782 3,375 162 187 1472
2019-02-21 08:58:31 GMT 41.185741 -8.665466 3,025 169 178 2240

Making use of Plane Finder data

You are free to use the raw flight data, aircraft information and images provided in this report for your own purposes provided the data is correctly attributed to Plane Finder. We ask that you please credit Plane Finder and link to planefinder.net in close proximity to the content.

Optionally one of the following logos (no smaller then 150x24px) can be used and must link to planefinder.net

Embedding the Plane Finder map

You are welcome to embed the Plane Finder playback map on your website to offer visitors a more interactive experience. We suggest using the following HTML code:

<iframe src="//planefinder.net/data/report/TO3401-F-GZHZ-7700-squawk-2019-02-21/map" width="800" height="600" seamless="seamless"></iframe>

Where our data comes from

Plane Finder has a global network of data feeds and antenna radars that receive data broadcast directly from aircraft. The primary technologies used are ADS-B and MLAT. We also show feeds from the FAA and a FLARM glider feed.

Click here to find out more about the Plane Finder network.

How we collect our data